Taunton 2W

41° 53' 56"N, 71° 08' 19"W, Elevation 50 ft.
Eastern Time

Hourly observations for the last 72 hours

Date Time Temperature (°F) Humi-
dity

(%)
Wind
(mph)
Pressure Rain (in) Sun
(W/m2)
UV ET
(in)
Air Dew 6 Hour 1 Hr 3 Hr 6 Hr Day
Alt
(in)
Sea
Level

(mb)
Max Min
24 20:00 69.5 66.8 78.6 69.5 91 SSE 3 G 5 29.79 1008.7 0.01 0.01 0.01 0.01 0 0.0 0.130
24 19:00 71.6 67.2 86 SSW 3 G 8 29.78 1008.5 0.00 33 0.0 0.126
24 18:00 73.8 68.0 82 SSW 8 G 12 29.77 1008.3 0.00 264 0.9 0.118
24 17:00 74.9 67.6 78 SSW 9 G 15 29.76 1007.9 0.00 220 1.7 0.103
24 16:00 76.1 68.4 77 S 7 G 13 29.77 1008.2 0.00 406 3.6 0.088
24 15:00 76.6 69.2 78 S 7 G 13 29.78 1008.6 0.00 682 5.7 0.075
24 14:00 78.6 69.2 79.5 61.8 73 SSW 4 G 11 29.78 1008.5 0.00 432 4.2 0.054
24 13:00 76.7 69.0 77 S 5 G 10 29.79 1008.7 0.00 1109 9.1 0.037
24 12:00 73.4 66.5 79 SW 5 G 12 29.81 1009.5 0.00 353 3.9 0.024
24 11:00 69.4 65.0 86 SSW 5 G 9 29.82 1009.9 0.00 369 3.2 0.017
24 10:00 68.3 64.0 86 SW 6 G 10 29.81 1009.4 0.00 436 3.0 0.009
24 09:00 65.5 62.2 89 WSW 5 G 6 29.81 1009.5 0.00 216 1.5 0.004
24 08:00 61.8 60.1 61.9 58.2 94 SSW 4 G 6 29.81 1009.5 0.00 128 0.6 0.001
24 07:00 60.0 59.1 97 WSW 1 G 3 29.80 1009.3 0.00 79 0.0 0.000
24 06:00 58.8 58.0 97 NNW 2 G 3 29.80 1009.2 0.00 28 0.0 0.000
24 05:00 58.4 57.6 97 NNW 0 G 2 29.78 1008.7 0.00 0 0.0 0.000
24 04:00 58.5 57.7 97 NNW 1 G 3 29.79 1008.7 0.00 0 0.0 0.000
24 03:00 58.7 57.6 96 NNW 1 G 3 29.79 1008.8 0.00 0 0.0 0.000
24 02:00 58.7 57.6 60.3 58.4 96 NNW 2 G 3 29.80 1009.2 0.00 0 0.0 0.000
24 01:00 58.7 57.6 96 NNW 0 G 1 29.81 1009.6 0.00 0 0.0 0.000
24 00:00 58.7 57.6 96 NNW 2 G 5 29.80 1009.3 0.00 0 0.0 0.043
23 23:00 58.6 57.5 96 N 2 G 7 29.81 1009.6 0.00 0 0.0 0.043
23 22:00 58.6 57.5 96 NNW 2 G 5 29.83 1010.1 0.00 0 0.0 0.043
23 21:00 59.0 57.6 95 NNE 4 G 8 29.81 1009.5 0.00 0 0.0 0.043
23 20:00 60.3 58.9 63.8 59.9 95 N 3 G 7 29.82 1009.7 0.00 11 0.0 0.042
23 19:00 60.0 58.6 95 N 3 G 8 29.80 1009.2 0.00 30 0.0 0.041
23 18:00 60.3 58.9 95 N 3 G 6 29.81 1009.6 0.00 77 0.0 0.040
23 17:00 60.6 58.3 92 N 5 G 9 29.82 1009.9 0.00 134 0.6 0.037
23 16:00 61.3 58.7 91 NNE 4 G 9 29.83 1010.2 0.00 107 0.9 0.034
23 15:00 63.1 58.8 86 NE 4 G 9 29.84 1010.6 0.00 153 1.2 0.029
23 14:00 63.1 58.8 63.8 60.1 86 ENE 4 G 13 29.86 1011.3 0.00 227 1.9 0.024
23 13:00 63.1 57.9 83 NE 4 G 9 29.88 1011.8 0.00 171 1.7 0.020
23 12:00 62.4 56.8 82 E 5 G 9 29.91 1012.8 0.00 181 1.7 0.015
23 11:00 62.0 56.4 82 E 5 G 8 29.92 1013.3 0.00 109 0.8 0.010
23 10:00 62.9 57.0 81 E 6 G 8 29.94 1013.8 0.00 243 1.8 0.005
23 09:00 61.3 55.8 82 ENE 3 G 5 29.95 1014.2 0.00 167 1.0 0.002
23 08:00 60.1 54.3 60.1 52.3 81 NNE 1 G 4 29.96 1014.5 0.00 100 0.5 0.001
23 07:00 59.0 53.5 82 NNE 1 G 4 29.97 1014.8 0.00 72 0.0 0.000
23 06:00 55.8 53.8 93 Calm 29.97 1015.0 0.00 26 0.0 0.000
23 05:00 53.8 52.4 95 SSE 0 G 2 29.98 1015.3 0.00 0 0.0 0.000
23 04:00 53.1 51.7 95 SSE 0 G 1 29.98 1015.2 0.00 0 0.0 0.000
23 03:00 52.4 51.0 95 Calm 30.00 1016.0 0.00 0 0.0 0.000
23 02:00 52.7 51.0 64.1 52.6 94 SSE 1 G 2 30.02 1016.6 0.00 0 0.0 0.000
23 01:00 54.0 52.0 93 SSE 0 G 1 30.02 1016.7 0.00 0 0.0 0.000
23 00:00 54.8 52.5 92 Calm 30.03 1017.1 0.00 0 0.0 0.167
22 23:00 54.3 52.0 92 Calm 30.04 1017.3 0.00 0 0.0 0.167
22 22:00 54.0 51.7 92 Calm 30.05 1017.6 0.00 0 0.0 0.167
22 21:00 58.0 53.5 85 SSE 0 G 2 30.04 1017.3 0.00 0 0.0 0.167
22 20:00 64.1 53.3 77.3 64.1 68 SSE 2 G 3 30.04 1017.2 0.00 18 0.0 0.165
22 19:00 66.2 53.7 64 SSE 3 G 8 30.03 1017.0 0.00 54 0.0 0.161
22 18:00 68.4 57.4 68 S 4 G 12 30.03 1016.9 0.00 167 0.6 0.154
22 17:00 70.6 59.5 68 S 8 G 13 30.02 1016.7 0.00 232 1.2 0.143
22 16:00 74.6 53.6 48 S 8 G 13 30.02 1016.6 0.00 524 3.1 0.126
22 15:00 76.1 61.2 60 E 3 G 13 30.01 1016.2 0.00 737 5.0 0.110
22 14:00 75.1 60.3 76.9 62.5 60 E 4 G 13 30.01 1016.3 0.00 410 7.8 0.089
22 13:00 73.7 60.8 64 E 4 G 9 30.02 1016.7 0.00 320 3.1 0.073
22 12:00 75.3 59.5 58 N 7 G 11 30.02 1016.5 0.00 1011 7.7 0.050
22 11:00 73.1 61.1 66 ESE 5 G 12 30.02 1016.7 0.00 816 6.1 0.030
22 10:00 70.3 62.8 77 E 4 G 10 30.03 1016.8 0.00 779 4.7 0.013
22 09:00 65.8 60.8 84 E 3 G 8 30.02 1016.7 0.00 564 2.4 0.006
22 08:00 62.6 59.6 62.6 48.5 90 ENE 5 G 8 30.01 1016.2 0.00 241 1.0 0.002
22 07:00 58.9 57.5 95 NNE 2 G 5 29.99 1015.5 0.00 186 0.0 0.000
22 06:00 51.0 49.9 96 NE 0 G 2 29.97 1015.0 0.00 30 0.0 0.000
22 05:00 48.8 47.4 95 NE 0 G 1 29.94 1014.0 0.00 0 0.0 0.000
22 04:00 49.7 48.3 95 NE 1 G 2 29.92 1013.1 0.00 0 0.0 0.000
22 03:00 50.6 49.2 95 Calm 29.90 1012.7 0.00 0 0.0 0.000
22 02:00 51.9 50.5 69.9 51.9 95 Calm 29.89 1012.3 0.00 0 0.0 0.000
22 01:00 53.7 52.0 94 Calm 29.88 1012.0 0.00 0 0.0 0.000
22 00:00 55.6 53.6 93 Calm 29.87 1011.5 0.00 0 0.0 0.184
21 23:00 58.2 55.6 91 NE 0 G 2 29.86 1011.3 0.00 0 0.0 0.184
21 22:00 61.7 56.5 83 NE 0 G 2 29.84 1010.7 0.00 0 0.0 0.183
21 21:00 68.1 57.6 69 NE 2 G 3 29.82 1009.8 0.00 0 0.0 0.182

Data generated by WxSolution Version 1.9.1.5, Build 2018.05.20.